Time;durP1;ratioP1;P1;durP2;ratioP2;P2;SDS_P1;SDS_P2;PMS_P1;PMS_P2;Temp;Humidity;BMP_temperature;BMP_pressure;BME280_temperature;BME280_humidity;BME280_pressure;Samples;Min_cycle;Max_cycle;Signal;HPM_P1;HPM_P2
2024/01/21 00:02:13;;;;;;;3.00;1.05;;;-1.60;59.40;;;;;;5075788;28;20161;-62
2024/01/21 00:04:40;;;;;;;0.52;0.52;;;-1.60;59.50;;;;;;5076714;28;20177;-61
2024/01/21 00:07:05;;;;;;;1.13;0.80;;;-1.50;59.40;;;;;;5075316;28;20170;-61
2024/01/21 00:09:32;;;;;;;0.40;0.40;;;-1.50;59.10;;;;;;5076138;28;20239;-61
2024/01/21 00:11:57;;;;;;;0.60;0.60;;;-1.50;58.70;;;;;;5075425;28;20411;-61
2024/01/21 00:14:23;;;;;;;0.80;0.67;;;-1.50;58.70;;;;;;5076012;28;20170;-61
2024/01/21 00:16:48;;;;;;;2.20;0.70;;;-1.50;58.20;;;;;;5058180;28;20544;-62
2024/01/21 00:19:14;;;;;;;0.87;0.87;;;-1.50;58.20;;;;;;5068883;28;20643;-61
2024/01/21 00:21:40;;;;;;;4.90;1.20;;;-1.50;58.60;;;;;;5055769;28;20170;-61
2024/01/21 00:24:06;;;;;;;2.80;1.65;;;-1.60;58.70;;;;;;5055978;28;20194;-61
2024/01/21 00:26:32;;;;;;;3.33;1.75;;;-1.50;58.50;;;;;;5055906;28;20268;-61
2024/01/21 00:29:00;;;;;;;2.05;1.67;;;-1.50;58.40;;;;;;5056975;28;20170;-62
2024/01/21 00:31:27;;;;;;;2.40;1.20;;;-1.40;58.40;;;;;;5056473;28;20205;-61
2024/01/21 00:33:53;;;;;;;1.25;1.25;;;-1.50;58.00;;;;;;5061815;28;20214;-61
2024/01/21 00:36:18;;;;;;;2.20;1.10;;;-1.60;58.40;;;;;;5066294;28;20357;-61
2024/01/21 00:38:44;;;;;;;1.23;1.13;;;-1.60;58.90;;;;;;5065209;28;20447;-61
2024/01/21 00:41:14;;;;;;;1.00;0.80;;;-1.50;59.10;;;;;;5065607;28;20162;-60
2024/01/21 00:43:40;;;;;;;0.93;0.70;;;-1.50;58.70;;;;;;5063901;28;20190;-61
2024/01/21 00:46:06;;;;;;;0.70;0.70;;;-1.80;58.80;;;;;;5065138;28;20181;-61
2024/01/21 00:48:33;;;;;;;0.98;0.98;;;-1.70;59.50;;;;;;5062479;28;20261;-61
2024/01/21 00:50:59;;;;;;;0.98;0.70;;;-1.70;59.20;;;;;;5068456;28;20169;-61
2024/01/21 00:53:26;;;;;;;0.70;0.70;;;-1.70;59.20;;;;;;5065848;28;20279;-61
2024/01/21 00:55:51;;;;;;;0.50;0.50;;;-1.70;59.20;;;;;;5065354;28;20693;-61
2024/01/21 00:58:17;;;;;;;1.47;0.90;;;-1.80;59.20;;;;;;5070571;28;20186;-60
2024/01/21 01:00:42;;;;;;;4.70;0.73;;;-2.00;59.50;;;;;;5075791;28;20207;-60
2024/01/21 01:03:08;;;;;;;4.30;1.10;;;-2.20;59.50;;;;;;5075289;28;20201;-62
2024/01/21 01:05:34;;;;;;;0.77;0.77;;;-2.20;61.10;;;;;;5071890;28;20580;-62
2024/01/21 01:08:00;;;;;;;0.83;0.80;;;-2.20;61.80;;;;;;5071891;28;20591;-61
2024/01/21 01:10:25;;;;;;;1.20;0.90;;;-2.10;62.00;;;;;;5071832;28;20228;-62
2024/01/21 01:12:52;;;;;;;1.00;0.70;;;-2.10;62.20;;;;;;5071901;28;20459;-61
2024/01/21 01:15:18;;;;;;;1.20;0.80;;;-2.20;62.70;;;;;;5071921;28;20219;-62
2024/01/21 01:17:54;;;;;;;0.63;0.63;;;-2.40;63.90;;;;;;5062823;28;20276;-61
2024/01/21 01:20:21;;;;;;;0.70;0.60;;;-2.40;64.30;;;;;;5044019;28;20193;-61
2024/01/21 01:22:46;;;;;;;5.50;2.30;;;-2.40;64.10;;;;;;5060486;28;20190;-61
2024/01/21 01:25:12;;;;;;;0.80;0.70;;;-2.30;64.20;;;;;;5066262;28;20524;-61
2024/01/21 01:27:38;;;;;;;0.60;0.60;;;-2.20;64.10;;;;;;5062130;28;20245;-61
2024/01/21 01:30:06;;;;;;;0.70;0.70;;;-2.20;63.60;;;;;;5064828;28;20269;-61
2024/01/21 01:32:31;;;;;;;0.80;0.73;;;-2.10;63.70;;;;;;5061679;28;20596;-62
2024/01/21 01:34:57;;;;;;;0.90;0.90;;;-2.20;63.60;;;;;;5061845;28;20177;-61
2024/01/21 01:37:23;;;;;;;0.87;0.70;;;-2.20;63.60;;;;;;5060442;28;20524;-62
2024/01/21 01:39:49;;;;;;;0.47;0.47;;;-2.30;63.70;;;;;;5062490;28;20479;-61
2024/01/21 01:42:15;;;;;;;1.60;1.47;;;-2.40;64.40;;;;;;5061654;28;20180;-61
2024/01/21 01:44:41;;;;;;;1.37;1.00;;;-2.50;65.20;;;;;;5061353;28;20503;-61
2024/01/21 01:47:11;;;;;;;0.95;0.85;;;-2.50;66.40;;;;;;5060234;28;20466;-61
2024/01/21 01:49:39;;;;;;;0.93;0.70;;;-2.40;66.80;;;;;;5061613;28;20255;-61
2024/01/21 01:52:12;;;;;;;1.35;0.60;;;-2.30;66.10;;;;;;5061359;28;20354;-62
2024/01/21 01:54:40;;;;;;;1.17;0.70;;;-2.30;65.40;;;;;;5042234;28;20178;-61
2024/01/21 01:57:10;;;;;;;4.80;1.67;;;-2.30;65.50;;;;;;5061420;28;20169;-61
2024/01/21 01:59:38;;;;;;;0.73;0.73;;;-2.30;66.30;;;;;;5065429;28;20232;-61
2024/01/21 02:02:04;;;;;;;1.13;1.00;;;-2.40;66.20;;;;;;5062684;28;20546;-62
2024/01/21 02:04:41;;;;;;;1.02;0.90;;;-2.30;66.30;;;;;;5059574;28;20182;-61
2024/01/21 02:07:06;;;;;;;1.38;1.33;;;-2.20;65.50;;;;;;5051440;28;20169;-61
2024/01/21 02:09:32;;;;;;;7.50;1.00;;;-2.10;65.10;;;;;;5067953;28;20185;-62
2024/01/21 02:11:59;;;;;;;2.37;1.50;;;-2.20;65.10;;;;;;5070940;28;20247;-62
2024/01/21 02:14:24;;;;;;;0.95;0.95;;;-2.20;65.50;;;;;;5070317;28;20443;-62
2024/01/21 02:16:50;;;;;;;5.03;1.37;;;-2.20;65.50;;;;;;5071276;28;20208;-61
2024/01/21 02:19:26;;;;;;;1.00;0.83;;;-2.10;65.20;;;;;;5071184;28;20247;-62
2024/01/21 02:21:53;;;;;;;1.08;0.98;;;-2.00;65.50;;;;;;5071063;28;20582;-62
2024/01/21 02:24:19;;;;;;;0.90;0.90;;;-2.00;66.60;;;;;;5071196;28;20262;-62
2024/01/21 02:26:45;;;;;;;1.03;0.87;;;-2.10;66.90;;;;;;5071278;28;20165;-61
2024/01/21 02:29:10;;;;;;;1.17;1.07;;;-2.30;67.30;;;;;;5071150;28;20203;-62
2024/01/21 02:31:36;;;;;;;0.60;0.60;;;-2.50;68.00;;;;;;5070983;28;20287;-61
2024/01/21 02:34:01;;;;;;;1.37;1.17;;;-2.50;69.10;;;;;;5071164;28;20196;-61
2024/01/21 02:36:27;;;;;;;1.50;0.70;;;-2.50;69.90;;;;;;5071103;28;20176;-62
2024/01/21 02:38:53;;;;;;;0.87;0.70;;;-2.50;69.50;;;;;;5071035;28;20197;-61
2024/01/21 02:41:18;;;;;;;1.47;1.00;;;-2.40;68.70;;;;;;5071020;28;20192;-62
2024/01/21 02:43:44;;;;;;;1.60;1.30;;;-2.30;68.40;;;;;;5070857;28;20276;-61
2024/01/21 02:46:09;;;;;;;3.47;1.43;;;-2.30;68.30;;;;;;5071094;28;20258;-62
2024/01/21 02:48:35;;;;;;;2.90;0.80;;;-2.40;68.70;;;;;;5071037;28;20165;-62
2024/01/21 02:51:01;;;;;;;1.60;1.50;;;-2.40;69.10;;;;;;5070882;28;20173;-62
2024/01/21 02:53:26;;;;;;;0.97;0.97;;;-2.30;69.90;;;;;;5070657;28;20197;-62
2024/01/21 02:55:52;;;;;;;0.70;0.70;;;-2.30;70.20;;;;;;5070999;28;20588;-62
2024/01/21 02:58:17;;;;;;;0.90;0.90;;;-2.40;70.00;;;;;;5070871;28;20165;-62
2024/01/21 03:00:43;;;;;;;1.47;0.90;;;-2.50;69.70;;;;;;5070624;28;20224;-62
2024/01/21 03:03:10;;;;;;;1.80;1.40;;;-2.40;69.70;;;;;;5070721;28;20614;-61
2024/01/21 03:05:36;;;;;;;1.83;0.98;;;-2.40;70.00;;;;;;5070864;28;20658;-61
2024/01/21 03:08:02;;;;;;;0.93;0.93;;;-2.30;70.50;;;;;;5070942;28;20178;-61
2024/01/21 03:10:28;;;;;;;1.00;0.90;;;-2.40;70.10;;;;;;5070847;28;20418;-62
2024/01/21 03:12:53;;;;;;;1.50;1.40;;;-2.40;70.50;;;;;;5073258;28;20193;-62
2024/01/21 03:15:19;;;;;;;0.70;0.70;;;-2.40;70.30;;;;;;5074646;28;20231;-62
2024/01/21 03:17:44;;;;;;;4.00;2.33;;;-2.40;70.20;;;;;;5074579;28;20219;-62
2024/01/21 03:20:11;;;;;;;0.70;0.70;;;-2.40;70.70;;;;;;5074456;28;20204;-62
2024/01/21 03:22:36;;;;;;;1.55;0.80;;;-2.40;71.00;;;;;;5074233;28;20190;-61
2024/01/21 03:25:02;;;;;;;2.40;1.07;;;-2.50;71.20;;;;;;5074473;28;20249;-62
2024/01/21 03:27:28;;;;;;;1.70;1.60;;;-2.50;71.70;;;;;;5074366;28;20651;-62
2024/01/21 03:29:55;;;;;;;1.00;0.97;;;-2.40;72.10;;;;;;5074238;28;20419;-62
2024/01/21 03:32:20;;;;;;;1.48;0.70;;;-2.40;72.20;;;;;;5073999;28;20217;-61
2024/01/21 03:34:46;;;;;;;0.90;0.90;;;-2.40;72.90;;;;;;5074269;28;20205;-61
2024/01/21 03:37:13;;;;;;;2.20;1.37;;;-2.30;72.80;;;;;;5074129;28;20184;-61
2024/01/21 03:39:38;;;;;;;1.15;1.05;;;-2.40;72.00;;;;;;5074075;28;20193;-61
2024/01/21 03:42:04;;;;;;;2.90;1.30;;;-2.40;70.90;;;;;;5073776;28;20529;-61
2024/01/21 03:44:30;;;;;;;1.52;0.85;;;-2.40;71.20;;;;;;5074071;28;20188;-61
2024/01/21 03:46:55;;;;;;;0.70;0.70;;;-2.40;71.90;;;;;;5074121;28;20177;-61
2024/01/21 03:49:21;;;;;;;1.20;1.00;;;-2.30;71.90;;;;;;5073987;28;20201;-62
2024/01/21 03:51:47;;;;;;;0.83;0.83;;;-2.40;71.20;;;;;;5073662;28;20254;-61
2024/01/21 03:54:12;;;;;;;1.00;0.87;;;-2.30;71.10;;;;;;5072024;28;20447;-61
2024/01/21 03:56:38;;;;;;;2.90;1.37;;;-2.30;71.90;;;;;;5073769;28;20170;-62
2024/01/21 03:59:04;;;;;;;1.27;1.13;;;-2.20;72.10;;;;;;5073659;28;20295;-61
2024/01/21 04:01:29;;;;;;;0.83;0.80;;;-2.30;71.80;;;;;;5073437;28;20180;-61
2024/01/21 04:03:55;;;;;;;0.90;0.90;;;-2.20;71.90;;;;;;5073737;28;20682;-61
2024/01/21 04:06:20;;;;;;;1.63;0.80;;;-2.20;72.10;;;;;;5073035;28;20181;-62
2024/01/21 04:08:46;;;;;;;1.03;0.90;;;-2.20;72.50;;;;;;5069095;28;20252;-62
2024/01/21 04:11:13;;;;;;;0.75;0.75;;;-2.20;71.60;;;;;;5053151;28;20578;-61
2024/01/21 04:13:39;;;;;;;0.73;0.65;;;-2.10;72.20;;;;;;5053207;28;20190;-61
2024/01/21 04:16:05;;;;;;;0.80;0.80;;;-2.00;73.10;;;;;;5053321;28;20175;-61
2024/01/21 04:18:32;;;;;;;1.83;0.93;;;-2.00;73.90;;;;;;5053413;28;20173;-61
2024/01/21 04:21:00;;;;;;;0.80;0.80;;;-1.90;74.60;;;;;;5053176;28;20440;-62
2024/01/21 04:23:26;;;;;;;0.60;0.60;;;-2.00;74.80;;;;;;5052924;28;20240;-62
2024/01/21 04:25:52;;;;;;;0.47;0.47;;;-2.00;75.30;;;;;;5053397;28;20208;-62
2024/01/21 04:28:18;;;;;;;1.00;1.00;;;-1.90;75.50;;;;;;5053295;28;20206;-61
2024/01/21 04:30:45;;;;;;;0.70;0.70;;;-1.90;75.30;;;;;;5034795;28;20185;-61
2024/01/21 04:33:10;;;;;;;1.05;0.95;;;-1.90;75.50;;;;;;5052888;28;20235;-62
2024/01/21 04:35:37;;;;;;;1.37;1.27;;;-1.90;76.10;;;;;;5053177;28;20261;-61
2024/01/21 04:38:03;;;;;;;0.60;0.60;;;-1.90;76.20;;;;;;5052966;28;20174;-62
2024/01/21 04:40:28;;;;;;;1.00;0.90;;;-1.80;75.70;;;;;;5034883;28;20292;-61
2024/01/21 04:42:54;;;;;;;1.20;1.00;;;-1.70;77.10;;;;;;5052632;28;20435;-62
2024/01/21 04:45:20;;;;;;;0.70;0.70;;;-1.60;78.10;;;;;;5052899;28;20668;-61
2024/01/21 04:47:45;;;;;;;0.97;0.80;;;-1.60;78.70;;;;;;5052936;28;20251;-61
2024/01/21 04:50:11;;;;;;;2.30;0.90;;;-1.60;78.70;;;;;;5052975;28;20170;-62
2024/01/21 04:52:36;;;;;;;0.87;0.87;;;-1.60;79.10;;;;;;5052377;28;20198;-61
2024/01/21 04:55:02;;;;;;;1.43;0.90;;;-1.50;79.20;;;;;;5052755;28;20193;-62
2024/01/21 04:57:28;;;;;;;1.02;1.02;;;-1.50;79.40;;;;;;5052684;28;20209;-61
2024/01/21 04:59:54;;;;;;;0.80;0.80;;;-1.40;79.90;;;;;;5052502;28;20197;-61
2024/01/21 05:02:19;;;;;;;0.67;0.67;;;-1.50;80.40;;;;;;5052217;28;20604;-62
2024/01/21 05:04:45;;;;;;;0.80;0.80;;;-1.40;81.50;;;;;;5053141;28;20261;-61
2024/01/21 05:07:10;;;;;;;1.43;1.00;;;-1.40;82.20;;;;;;5052506;28;20193;-62
2024/01/21 05:09:36;;;;;;;1.97;1.03;;;-1.50;83.00;;;;;;5052445;28;20185;-62
2024/01/21 05:12:02;;;;;;;1.67;1.03;;;-1.50;84.10;;;;;;5052136;28;20208;-61
2024/01/21 05:14:27;;;;;;;1.23;1.13;;;-1.30;84.70;;;;;;5052318;28;20257;-62
2024/01/21 05:16:53;;;;;;;0.90;0.80;;;-1.20;84.80;;;;;;5052417;28;20183;-62
2024/01/21 05:19:18;;;;;;;1.33;1.00;;;-1.20;85.20;;;;;;5052188;28;20662;-62
2024/01/21 05:21:44;;;;;;;2.67;1.20;;;-1.00;85.10;;;;;;5051968;28;20166;-61
2024/01/21 05:24:10;;;;;;;0.50;0.50;;;-0.90;84.80;;;;;;5052226;28;20243;-62
2024/01/21 05:26:44;;;;;;;1.23;0.87;;;-1.00;84.70;;;;;;5052230;28;20173;-62
2024/01/21 05:29:10;;;;;;;3.08;1.08;;;-1.00;85.00;;;;;;5052020;28;20170;-62
2024/01/21 05:31:36;;;;;;;1.40;1.30;;;-0.90;85.10;;;;;;5052098;28;20644;-61
2024/01/21 05:34:02;;;;;;;1.37;1.27;;;-0.90;85.30;;;;;;5051496;28;20205;-61
2024/01/21 05:36:27;;;;;;;1.33;1.07;;;-0.90;85.80;;;;;;5052029;28;20191;-61
2024/01/21 05:38:53;;;;;;;1.00;1.00;;;-0.90;86.20;;;;;;5051861;28;20198;-61
2024/01/21 05:41:19;;;;;;;2.35;1.30;;;-0.80;86.50;;;;;;5051734;28;20175;-61
2024/01/21 05:43:45;;;;;;;0.93;0.83;;;-0.70;85.80;;;;;;5051542;28;20547;-61
2024/01/21 05:46:10;;;;;;;0.67;0.67;;;-0.60;84.90;;;;;;5051727;28;20253;-61
2024/01/21 05:48:36;;;;;;;1.30;1.23;;;-0.50;85.30;;;;;;5051856;28;20452;-61
2024/01/21 05:51:02;;;;;;;1.70;1.00;;;-0.50;85.50;;;;;;5051650;28;20172;-61
2024/01/21 05:53:27;;;;;;;2.40;1.00;;;-0.50;85.20;;;;;;5051315;28;20613;-61
2024/01/21 05:55:53;;;;;;;0.70;0.70;;;-0.50;85.10;;;;;;5051370;28;20443;-61
2024/01/21 05:58:19;;;;;;;1.83;0.57;;;-0.60;85.40;;;;;;5051277;28;20658;-61
2024/01/21 06:00:44;;;;;;;0.73;0.73;;;-0.60;85.90;;;;;;5051401;28;20212;-61
2024/01/21 06:03:10;;;;;;;4.33;1.20;;;-0.70;86.60;;;;;;5051421;28;20198;-62
2024/01/21 06:05:35;;;;;;;1.00;0.70;;;-0.60;87.20;;;;;;5051530;28;20170;-61
2024/01/21 06:08:01;;;;;;;0.93;0.80;;;-0.80;87.20;;;;;;5051478;28;20162;-61
2024/01/21 06:10:27;;;;;;;0.57;0.57;;;-1.00;87.90;;;;;;5051774;28;20204;-61
2024/01/21 06:12:52;;;;;;;1.10;0.80;;;-1.00;88.80;;;;;;5051212;28;20242;-61
2024/01/21 06:15:18;;;;;;;1.13;1.03;;;-0.90;89.30;;;;;;5051200;28;20174;-61
2024/01/21 06:17:43;;;;;;;0.60;0.60;;;-0.80;88.40;;;;;;5051334;28;20175;-61
2024/01/21 06:20:09;;;;;;;0.70;0.70;;;-0.60;87.60;;;;;;5051187;28;20248;-61
2024/01/21 06:22:38;;;;;;;0.73;0.73;;;-0.60;86.70;;;;;;5051190;28;20183;-61
2024/01/21 06:25:04;;;;;;;0.80;0.80;;;-0.60;86.60;;;;;;5051177;28;20178;-62
2024/01/21 06:27:30;;;;;;;0.45;0.45;;;-0.60;86.30;;;;;;5051102;28;20263;-62
2024/01/21 06:29:55;;;;;;;0.60;0.60;;;-0.50;86.10;;;;;;5051110;28;20262;-62
2024/01/21 06:32:21;;;;;;;0.70;0.70;;;-0.50;86.00;;;;;;5050651;28;20211;-62
2024/01/21 06:34:46;;;;;;;0.87;0.87;;;-0.60;85.80;;;;;;5050873;28;20233;-61
2024/01/21 06:37:12;;;;;;;0.53;0.53;;;-0.70;86.30;;;;;;5051182;28;20524;-62
2024/01/21 06:39:38;;;;;;;1.30;1.20;;;-0.70;86.60;;;;;;5050817;28;20243;-61
2024/01/21 06:42:03;;;;;;;3.23;0.80;;;-0.70;87.00;;;;;;5050641;28;20620;-62
2024/01/21 06:44:29;;;;;;;3.33;1.23;;;-0.70;86.90;;;;;;5051285;28;20170;-62
2024/01/21 06:46:55;;;;;;;1.03;0.80;;;-0.70;86.90;;;;;;5052203;28;20204;-62
2024/01/21 06:49:20;;;;;;;1.97;0.73;;;-0.70;86.70;;;;;;5055184;28;20186;-61
2024/01/21 06:51:54;;;;;;;1.50;0.90;;;-0.70;86.40;;;;;;5054792;28;20170;-61
2024/01/21 06:54:21;;;;;;;0.70;0.70;;;-0.70;86.40;;;;;;5054805;28;20213;-62
2024/01/21 06:56:46;;;;;;;0.60;0.60;;;-0.70;86.20;;;;;;5054975;28;20185;-62
2024/01/21 06:59:12;;;;;;;0.70;0.70;;;-0.70;85.90;;;;;;5054863;28;20198;-62
2024/01/21 07:01:38;;;;;;;0.90;0.83;;;-0.80;85.70;;;;;;5054195;28;20517;-62
2024/01/21 07:04:03;;;;;;;0.90;0.90;;;-0.70;86.10;;;;;;5085102;22;20936;-58
2024/01/21 07:06:29;;;;;;;1.57;1.47;;;-0.60;86.20;;;;;;5114681;28;20172;-57
2024/01/21 07:08:55;;;;;;;0.90;0.90;;;-0.70;86.00;;;;;;5113886;28;20965;-57
2024/01/21 07:11:21;;;;;;;1.02;0.80;;;-0.70;86.10;;;;;;5098325;28;20168;-55
2024/01/21 07:13:47;;;;;;;1.05;0.80;;;-0.70;86.20;;;;;;5093392;28;20548;-55
2024/01/21 07:16:13;;;;;;;1.40;1.03;;;-0.70;86.10;;;;;;5075039;28;20174;-54
2024/01/21 07:18:38;;;;;;;1.03;0.70;;;-0.60;86.20;;;;;;5057237;28;20231;-55
2024/01/21 07:21:04;;;;;;;1.37;1.27;;;-0.60;85.60;;;;;;5075435;28;20169;-57
2024/01/21 07:23:29;;;;;;;3.50;1.30;;;-0.50;85.50;;;;;;5074783;28;20170;-58
2024/01/21 07:25:56;;;;;;;1.20;1.10;;;-0.40;84.20;;;;;;5074725;28;20527;-55
2024/01/21 07:28:22;;;;;;;1.17;1.17;;;-0.50;84.40;;;;;;5074518;28;20252;-55
2024/01/21 07:30:48;;;;;;;0.80;0.80;;;-0.40;84.50;;;;;;5074598;28;20709;-55
2024/01/21 07:33:14;;;;;;;0.60;0.60;;;-0.30;84.00;;;;;;5074606;28;20178;-55
2024/01/21 07:35:39;;;;;;;0.70;0.70;;;-0.30;84.30;;;;;;5074799;28;20620;-55
2024/01/21 07:38:05;;;;;;;0.90;0.90;;;-0.20;84.60;;;;;;5074929;28;20218;-55
2024/01/21 07:40:31;;;;;;;0.90;0.70;;;-0.20;84.50;;;;;;5074491;28;20203;-60
2024/01/21 07:42:57;;;;;;;1.88;0.98;;;-0.20;84.60;;;;;;5074806;28;20561;-56
2024/01/21 07:45:23;;;;;;;0.80;0.80;;;-0.10;85.00;;;;;;5074466;28;20197;-56
2024/01/21 07:47:49;;;;;;;0.50;0.50;;;0.00;84.80;;;;;;5074658;28;20416;-56
2024/01/21 07:50:14;;;;;;;0.80;0.63;;;0.10;84.90;;;;;;5074861;28;20175;-56
2024/01/21 07:52:42;;;;;;;1.00;0.90;;;0.10;83.70;;;;;;5074464;28;20175;-56
2024/01/21 07:55:08;;;;;;;4.32;4.03;;;0.00;83.70;;;;;;5074296;28;20221;-56
2024/01/21 07:57:34;;;;;;;3.00;2.75;;;0.10;83.80;;;;;;5073412;28;20186;-56
2024/01/21 08:00:00;;;;;;;5.00;2.43;;;0.20;83.80;;;;;;5073833;28;20191;-56
2024/01/21 08:02:27;;;;;;;2.37;2.27;;;0.40;84.00;;;;;;5055325;28;20182;-56
2024/01/21 08:04:53;;;;;;;1.75;1.63;;;0.50;83.80;;;;;;5073747;28;20455;-58
2024/01/21 08:07:19;;;;;;;3.80;1.90;;;0.70;83.80;;;;;;5074219;28;20179;-60
2024/01/21 08:09:44;;;;;;;2.30;2.10;;;0.70;83.50;;;;;;5073636;28;20411;-56
2024/01/21 08:12:10;;;;;;;2.63;2.33;;;0.70;82.30;;;;;;5073970;28;20175;-57
2024/01/21 08:14:35;;;;;;;2.20;1.33;;;0.80;81.50;;;;;;5073601;28;20263;-56
2024/01/21 08:17:02;;;;;;;1.63;1.53;;;1.00;81.40;;;;;;5073539;28;20175;-56
2024/01/21 08:19:28;;;;;;;1.77;1.65;;;1.30;82.00;;;;;;5073579;28;20199;-57
2024/01/21 08:21:54;;;;;;;1.77;1.63;;;1.60;81.70;;;;;;5073651;28;20256;-56
2024/01/21 08:24:19;;;;;;;2.70;2.50;;;1.80;81.50;;;;;;5074012;28;20181;-56
2024/01/21 08:26:45;;;;;;;10.13;9.20;;;2.20;81.20;;;;;;5073880;28;20170;-56
2024/01/21 08:29:11;;;;;;;3.10;2.90;;;2.60;81.70;;;;;;5074331;28;20180;-57
2024/01/21 08:31:46;;;;;;;10.60;7.40;;;3.30;80.60;;;;;;5073446;28;20178;-56
2024/01/21 08:34:12;;;;;;;8.23;7.43;;;3.80;78.60;;;;;;5074460;28;20195;-56
2024/01/21 08:36:37;;;;;;;4.90;4.43;;;4.30;77.00;;;;;;5074025;28;20178;-58
2024/01/21 08:39:06;;;;;;;4.70;3.50;;;4.80;75.50;;;;;;5073586;28;20738;-60
2024/01/21 08:41:35;;;;;;;2.10;1.95;;;5.10;73.00;;;;;;5073344;28;20198;-61
2024/01/21 08:44:04;;;;;;;4.10;3.35;;;5.20;71.10;;;;;;5073744;28;20248;-58
2024/01/21 08:46:30;;;;;;;11.15;8.52;;;5.30;70.80;;;;;;5074730;28;20172;-57
2024/01/21 08:48:56;;;;;;;7.87;6.90;;;5.50;69.40;;;;;;5073415;28;20668;-60
2024/01/21 08:51:22;;;;;;;16.60;13.57;;;5.60;69.90;;;;;;5073221;28;20396;-57
2024/01/21 08:53:55;;;;;;;8.13;6.93;;;5.80;69.10;;;;;;5078065;28;20200;-58
2024/01/21 08:56:22;;;;;;;9.57;5.65;;;6.00;69.30;;;;;;5088952;28;20670;-56
2024/01/21 08:58:48;;;;;;;5.13;4.10;;;6.20;68.50;;;;;;5073127;28;20177;-59
2024/01/21 09:01:15;;;;;;;5.07;4.57;;;6.40;67.90;;;;;;5073337;28;20181;-56
2024/01/21 09:03:41;;;;;;;5.10;4.60;;;6.50;67.20;;;;;;5072662;28;20529;-57
2024/01/21 09:06:06;;;;;;;5.07;4.53;;;6.40;66.80;;;;;;5073079;28;20179;-57
2024/01/21 09:08:32;;;;;;;6.07;4.33;;;6.10;68.10;;;;;;5072691;28;20176;-57
2024/01/21 09:10:57;;;;;;;5.30;4.27;;;6.10;68.30;;;;;;5072225;28;20230;-57
2024/01/21 09:13:23;;;;;;;4.17;3.77;;;6.10;67.60;;;;;;5072917;28;20173;-56
2024/01/21 09:15:49;;;;;;;5.97;4.33;;;6.10;67.20;;;;;;5072806;28;20732;-54
2024/01/21 09:18:14;;;;;;;4.13;3.50;;;5.90;68.90;;;;;;5072768;28;20210;-57
2024/01/21 09:20:40;;;;;;;4.23;3.47;;;5.60;70.80;;;;;;5072041;28;20205;-60
2024/01/21 09:23:05;;;;;;;5.53;3.33;;;5.60;67.80;;;;;;5085383;28;20179;-56
2024/01/21 09:25:31;;;;;;;3.17;2.73;;;5.70;68.40;;;;;;5092294;28;20274;-56
2024/01/21 09:27:57;;;;;;;2.00;1.43;;;5.90;67.30;;;;;;5093068;28;20164;-57
2024/01/21 09:30:23;;;;;;;2.60;2.30;;;6.10;66.00;;;;;;5092874;28;20409;-57
2024/01/21 09:32:48;;;;;;;4.40;2.87;;;6.10;66.30;;;;;;5092548;28;20593;-57
2024/01/21 09:35:14;;;;;;;3.60;2.70;;;6.00;65.00;;;;;;5092237;28;20199;-55
2024/01/21 09:37:40;;;;;;;1.80;1.70;;;6.20;65.60;;;;;;5093131;28;20171;-56
2024/01/21 09:40:06;;;;;;;1.33;1.23;;;6.20;62.70;;;;;;5092625;28;20438;-56
2024/01/21 09:42:32;;;;;;;2.70;2.50;;;6.40;59.50;;;;;;5092754;28;20172;-56
2024/01/21 09:44:57;;;;;;;3.03;1.80;;;6.60;60.90;;;;;;5092410;28;20566;-56
2024/01/21 09:47:24;;;;;;;2.17;2.03;;;6.90;58.30;;;;;;5092378;28;20168;-57
2024/01/21 09:49:51;;;;;;;2.30;2.10;;;7.10;57.10;;;;;;5092761;28;20168;-57
2024/01/21 09:52:18;;;;;;;2.65;2.45;;;7.20;57.30;;;;;;5089304;28;20188;-56
2024/01/21 09:54:45;;;;;;;2.35;2.03;;;7.40;53.70;;;;;;5073306;28;20239;-56
2024/01/21 09:57:12;;;;;;;5.05;4.55;;;7.70;56.70;;;;;;5072492;28;20185;-57
2024/01/21 09:59:39;;;;;;;4.25;2.28;;;7.90;56.60;;;;;;5072751;28;20201;-56
2024/01/21 10:02:11;;;;;;;3.50;2.50;;;8.00;54.00;;;;;;5072830;28;20189;-57
2024/01/21 10:04:37;;;;;;;4.40;2.53;;;8.30;54.40;;;;;;5072623;28;20209;-59
2024/01/21 10:07:02;;;;;;;2.63;2.23;;;8.60;56.20;;;;;;5071772;28;20192;-57
2024/01/21 10:09:29;;;;;;;1.87;1.77;;;8.70;53.70;;;;;;5072883;28;20184;-57
2024/01/21 10:11:56;;;;;;;3.13;2.67;;;9.10;49.80;;;;;;5072227;28;20176;-57
2024/01/21 10:14:26;;;;;;;3.30;1.97;;;9.50;49.60;;;;;;5072138;28;20271;-57
2024/01/21 10:16:51;;;;;;;1.67;1.57;;;10.00;50.40;;;;;;5071869;28;20411;-57
2024/01/21 10:19:27;;;;;;;1.80;1.70;;;10.50;47.30;;;;;;5071606;28;20457;-57
2024/01/21 10:22:07;;;;;;;2.70;2.40;;;11.10;45.80;;;;;;5070989;28;20165;-57
2024/01/21 10:24:33;;;;;;;2.77;1.60;;;11.50;45.30;;;;;;5071417;28;20521;-57
2024/01/21 10:26:58;;;;;;;4.80;1.80;;;11.80;44.50;;;;;;5071501;28;20456;-57
2024/01/21 10:29:25;;;;;;;1.90;1.67;;;12.10;43.00;;;;;;5071568;28;20252;-58
2024/01/21 10:31:50;;;;;;;1.87;1.77;;;12.70;44.70;;;;;;5071460;28;20818;-58
2024/01/21 10:34:16;;;;;;;2.33;1.90;;;13.20;43.80;;;;;;5071404;28;20467;-58
2024/01/21 10:36:46;;;;;;;2.43;2.23;;;13.70;42.90;;;;;;5071501;28;20251;-58
2024/01/21 10:39:18;;;;;;;1.60;1.50;;;13.60;43.30;;;;;;5071259;28;20632;-57
2024/01/21 10:41:44;;;;;;;3.13;1.70;;;13.60;39.50;;;;;;5071218;28;20403;-58
2024/01/21 10:44:11;;;;;;;10.07;3.47;;;13.50;37.10;;;;;;5071540;28;20813;-58
2024/01/21 10:46:38;;;;;;;1.80;1.70;;;13.40;37.80;;;;;;5071179;28;20408;-57
2024/01/21 10:49:03;;;;;;;4.30;1.60;;;12.80;36.50;;;;;;5070859;28;20413;-57
2024/01/21 10:51:29;;;;;;;2.63;2.20;;;12.60;35.10;;;;;;5066476;28;20422;-57
2024/01/21 10:53:57;;;;;;;4.00;1.37;;;12.70;37.10;;;;;;5081913;28;20220;-57
2024/01/21 10:56:25;;;;;;;2.30;1.50;;;12.60;36.50;;;;;;5071340;28;20472;-57
2024/01/21 10:58:53;;;;;;;1.40;1.30;;;12.50;33.90;;;;;;5079517;28;20792;-57
2024/01/21 11:01:20;;;;;;;1.67;1.10;;;12.10;33.00;;;;;;5081602;28;20459;-57
2024/01/21 11:03:48;;;;;;;3.40;1.77;;;11.80;34.50;;;;;;5074298;28;20793;-57
2024/01/21 11:06:16;;;;;;;1.77;0.90;;;11.50;32.90;;;;;;5080312;28;20412;-57
2024/01/21 11:08:49;;;;;;;1.47;1.23;;;11.30;33.50;;;;;;5084675;28;20407;-57
2024/01/21 11:11:20;;;;;;;1.20;1.10;;;11.20;34.20;;;;;;5092071;28;20406;-57
2024/01/21 11:13:49;;;;;;;0.97;0.90;;;11.00;33.30;;;;;;5091844;28;20399;-57
2024/01/21 11:16:30;;;;;;;0.80;0.80;;;10.80;33.00;;;;;;5092000;28;20483;-56
2024/01/21 11:19:05;;;;;;;1.00;0.70;;;10.80;33.20;;;;;;5092313;28;20892;-57
2024/01/21 11:21:32;;;;;;;1.13;1.00;;;10.70;31.50;;;;;;5091165;28;20413;-57
2024/01/21 11:24:03;;;;;;;1.20;0.70;;;10.50;31.30;;;;;;5091345;28;20450;-57
2024/01/21 11:26:34;;;;;;;1.13;0.90;;;10.50;32.00;;;;;;5091994;28;20621;-57
2024/01/21 11:29:02;;;;;;;1.43;1.17;;;10.30;37.40;;;;;;5074607;28;20283;-57
2024/01/21 11:31:32;;;;;;;1.97;1.40;;;10.00;35.50;;;;;;5091711;28;20407;-56
2024/01/21 11:34:05;;;;;;;2.53;1.00;;;9.90;36.00;;;;;;5094941;28;20822;-57
2024/01/21 11:36:37;;;;;;;1.40;0.97;;;9.90;37.80;;;;;;5094378;28;20419;-56
2024/01/21 11:39:05;;;;;;;2.37;0.80;;;9.90;38.30;;;;;;5095742;28;20411;-56
2024/01/21 11:41:41;;;;;;;2.03;0.83;;;9.80;39.70;;;;;;5095296;28;20916;-57
2024/01/21 11:44:19;;;;;;;1.20;1.10;;;9.80;38.30;;;;;;5095525;28;20434;-57
2024/01/21 11:46:45;;;;;;;0.70;0.70;;;9.60;33.90;;;;;;5095775;28;20431;-57
2024/01/21 11:49:11;;;;;;;1.40;1.30;;;9.40;35.60;;;;;;5083291;28;20246;-55
2024/01/21 11:51:37;;;;;;;1.00;1.00;;;9.20;36.00;;;;;;5085414;28;20411;-56
2024/01/21 11:54:04;;;;;;;1.73;0.80;;;9.10;33.70;;;;;;5082723;28;20271;-57
2024/01/21 11:56:30;;;;;;;0.50;0.50;;;9.20;32.80;;;;;;5090837;28;20191;-57
2024/01/21 11:58:57;;;;;;;4.53;1.20;;;9.30;33.60;;;;;;5094424;28;20256;-57
2024/01/21 12:01:24;;;;;;;2.55;1.38;;;9.30;35.10;;;;;;5075065;28;20173;-56
2024/01/21 12:03:50;;;;;;;0.98;0.60;;;9.40;33.40;;;;;;5073927;28;20551;-57
2024/01/21 12:06:16;;;;;;;1.00;0.90;;;9.30;34.80;;;;;;5074432;28;20177;-57
2024/01/21 12:08:45;;;;;;;0.82;0.82;;;9.30;35.00;;;;;;5074677;28;20204;-57
2024/01/21 12:11:13;;;;;;;2.10;1.42;;;9.30;34.90;;;;;;5074497;28;20643;-57
2024/01/21 12:13:45;;;;;;;0.80;0.80;;;9.10;33.40;;;;;;5074589;28;20216;-56
2024/01/21 12:16:12;;;;;;;1.05;0.80;;;9.00;35.70;;;;;;5083438;28;20225;-56
2024/01/21 12:18:41;;;;;;;0.65;0.63;;;8.70;36.10;;;;;;5093691;28;20208;-56
2024/01/21 12:21:07;;;;;;;0.70;0.70;;;8.70;34.40;;;;;;5093848;28;20204;-56
2024/01/21 12:23:35;;;;;;;2.47;1.10;;;8.50;34.20;;;;;;5094560;28;20219;-57
2024/01/21 12:26:01;;;;;;;1.20;1.02;;;8.40;34.90;;;;;;5088781;28;20213;-57
2024/01/21 12:28:26;;;;;;;0.67;0.67;;;8.30;35.40;;;;;;5084567;28;20560;-56
2024/01/21 12:30:53;;;;;;;1.10;1.00;;;8.10;35.20;;;;;;5085578;28;20186;-56
2024/01/21 12:33:19;;;;;;;1.67;0.90;;;7.90;35.10;;;;;;5094509;28;20169;-56
2024/01/21 12:35:45;;;;;;;1.63;0.70;;;7.70;38.10;;;;;;5094424;28;20658;-57
2024/01/21 12:38:11;;;;;;;1.27;0.93;;;7.40;36.00;;;;;;5094345;28;20172;-57
2024/01/21 12:40:38;;;;;;;0.63;0.63;;;7.30;36.20;;;;;;5090991;28;20199;-57
2024/01/21 12:43:03;;;;;;;1.50;1.00;;;7.20;36.50;;;;;;5083640;28;20168;-55
2024/01/21 12:45:29;;;;;;;1.90;0.60;;;7.10;36.40;;;;;;5084552;28;20215;-56
2024/01/21 12:47:55;;;;;;;1.03;0.60;;;7.10;36.70;;;;;;5093885;28;20232;-56